createdAt,value
2018-01-24T00:01:15.151Z,85.34
2018-01-24T00:03:43.608Z,85.68
2018-01-24T00:06:12.012Z,85.27
2018-01-24T00:08:40.450Z,85.62
2018-01-24T00:11:08.857Z,85.29
2018-01-24T00:13:37.247Z,85.63
2018-01-24T00:16:05.664Z,85.63
2018-01-24T00:18:34.058Z,85.65
2018-01-24T00:21:02.446Z,85.42
2018-01-24T00:23:30.937Z,85.41
2018-01-24T00:25:59.325Z,85.25
2018-01-24T00:28:27.734Z,85.49
2018-01-24T00:30:56.193Z,85.62
2018-01-24T00:33:24.577Z,85.86
2018-01-24T00:35:52.989Z,85.42
2018-01-24T00:38:21.425Z,85.90
2018-01-24T00:40:49.814Z,85.67
2018-01-24T00:43:18.217Z,85.89
2018-01-24T00:45:46.702Z,85.46
2018-01-24T00:48:15.093Z,85.63
2018-01-24T00:50:43.491Z,85.03
2018-01-24T00:53:11.954Z,85.53
2018-01-24T00:55:40.343Z,85.60
2018-01-24T00:58:08.753Z,85.82
2018-01-24T01:00:37.195Z,86.30
2018-01-24T01:03:05.574Z,86.35
2018-01-24T01:05:33.958Z,86.34
2018-01-24T01:08:02.394Z,87.48
2018-01-24T01:10:30.773Z,87.23
2018-01-24T01:12:59.189Z,87.46
2018-01-24T01:15:27.644Z,87.71
2018-01-24T01:17:56.053Z,87.94
2018-01-24T01:20:24.447Z,88.52
2018-01-24T01:22:52.883Z,88.55
2018-01-24T01:25:21.317Z,88.87
2018-01-24T01:27:49.714Z,88.45
2018-01-24T01:30:18.138Z,89.16
2018-01-24T01:32:46.548Z,89.15
2018-01-24T01:35:14.936Z,88.95
2018-01-24T01:37:43.378Z,89.43
2018-01-24T01:40:11.770Z,89.23
2018-01-24T01:42:40.203Z,88.87
2018-01-24T01:45:08.665Z,88.40
2018-01-24T01:47:37.109Z,88.50
2018-01-24T01:50:05.540Z,88.52
2018-01-24T01:52:34.000Z,87.75
2018-01-24T01:55:02.405Z,88.31
2018-01-24T01:57:30.806Z,89.01
2018-01-24T01:59:59.291Z,88.63
2018-01-24T02:02:27.701Z,88.31
2018-01-24T02:04:56.086Z,88.06
2018-01-24T02:07:24.515Z,88.68
2018-01-24T02:09:52.979Z,88.48
2018-01-24T02:12:21.373Z,88.32
2018-01-24T02:14:49.861Z,88.14
2018-01-24T02:17:18.293Z,88.12
2018-01-24T02:19:46.683Z,88.44
2018-01-24T02:22:15.145Z,88.26
2018-01-24T02:24:43.541Z,88.30
2018-01-24T02:27:11.929Z,88.47
2018-01-24T02:29:40.386Z,87.96
2018-01-24T02:32:08.818Z,88.28
2018-01-24T02:34:37.205Z,88.31
2018-01-24T02:37:05.711Z,88.69
2018-01-24T02:39:34.142Z,88.46
2018-01-24T02:42:02.570Z,88.34
2018-01-24T02:44:31.034Z,88.16
2018-01-24T02:46:59.456Z,88.03
2018-01-24T02:49:27.856Z,87.92
2018-01-24T02:51:56.315Z,87.34
2018-01-24T02:54:24.740Z,87.45
2018-01-24T02:56:53.174Z,87.38
2018-01-24T02:59:21.613Z,87.72
2018-01-24T03:01:50.030Z,87.62
2018-01-24T03:04:18.475Z,88.16
2018-01-24T03:06:46.982Z,87.91
2018-01-24T03:09:15.376Z,88.42
2018-01-24T03:11:43.790Z,88.42
2018-01-24T03:14:12.272Z,88.13
2018-01-24T03:16:40.698Z,88.53
2018-01-24T03:19:09.121Z,88.06
2018-01-24T03:21:37.571Z,88.35
2018-01-24T03:24:05.990Z,88.51
2018-01-24T03:26:34.432Z,88.85
2018-01-24T03:29:02.881Z,89.05
2018-01-24T03:31:31.269Z,88.71
2018-01-24T03:33:59.683Z,88.39
2018-01-24T03:36:28.147Z,88.61
2018-01-24T03:38:56.586Z,88.84
2018-01-24T03:41:24.980Z,88.24
2018-01-24T03:43:55.024Z,88.99
2018-01-24T03:46:23.406Z,89.06
2018-01-24T03:48:51.836Z,89.00
2018-01-24T03:51:20.307Z,88.56
2018-01-24T03:53:48.704Z,88.50
2018-01-24T03:56:17.086Z,88.82
2018-01-24T03:58:45.537Z,88.67
2018-01-24T04:01:13.926Z,88.50
2018-01-24T04:03:42.329Z,89.01
2018-01-24T04:06:10.795Z,89.30
2018-01-24T04:08:39.221Z,88.90
2018-01-24T04:11:07.610Z,89.02
2018-01-24T04:13:36.029Z,88.65
2018-01-24T04:16:04.429Z,89.13
2018-01-24T04:18:32.855Z,88.74
2018-01-24T04:21:01.293Z,88.51
2018-01-24T04:23:29.682Z,88.35
2018-01-24T04:25:58.064Z,88.67
2018-01-24T04:28:26.498Z,88.15
2018-01-24T04:30:54.939Z,88.33
2018-01-24T04:33:23.342Z,88.30
2018-01-24T04:35:51.769Z,88.71
2018-01-24T04:38:20.191Z,88.45
2018-01-24T04:40:48.618Z,88.00
2018-01-24T04:43:17.156Z,88.01
2018-01-24T04:45:45.606Z,88.33
2018-01-24T04:48:13.996Z,88.06
2018-01-24T04:50:42.462Z,87.80
2018-01-24T04:53:10.887Z,87.96
2018-01-24T04:55:39.317Z,88.09
2018-01-24T04:58:07.810Z,88.13
2018-01-24T05:00:36.257Z,88.29
2018-01-24T05:03:04.697Z,87.99
2018-01-24T05:05:33.166Z,87.95
2018-01-24T05:08:01.601Z,87.93
2018-01-24T05:10:30.015Z,87.41
2018-01-24T05:12:58.508Z,87.67
2018-01-24T05:15:26.957Z,87.61
2018-01-24T05:17:55.363Z,87.51
2018-01-24T05:20:24.768Z,87.64
2018-01-24T05:22:53.186Z,87.44
2018-01-24T05:25:21.590Z,87.80
2018-01-24T05:27:50.004Z,87.72
2018-01-24T05:30:18.396Z,87.66
2018-01-24T05:32:46.777Z,87.84
2018-01-24T05:35:15.202Z,87.46
2018-01-24T05:37:43.604Z,87.53
2018-01-24T05:40:11.990Z,87.59
2018-01-24T05:42:40.463Z,87.57
2018-01-24T05:45:11.475Z,87.13
2018-01-24T05:47:39.972Z,87.23
2018-01-24T05:50:08.407Z,87.54
2018-01-24T05:52:36.832Z,87.35
2018-01-24T05:57:56.951Z,87.36
2018-01-24T06:00:25.373Z,87.59
2018-01-24T06:02:53.768Z,86.70
2018-01-24T06:05:22.247Z,87.50
2018-01-24T06:07:50.650Z,87.26
2018-01-24T06:10:19.090Z,87.03
2018-01-24T06:12:47.543Z,87.34
2018-01-24T06:15:15.962Z,87.11
2018-01-24T06:17:44.359Z,87.05
2018-01-24T06:20:12.819Z,87.14
2018-01-24T06:22:41.242Z,86.93
2018-01-24T06:25:09.659Z,86.67
2018-01-24T06:27:38.082Z,86.40
2018-01-24T06:30:06.471Z,87.06
2018-01-24T06:32:35.192Z,87.05
2018-01-24T06:35:03.690Z,86.95
2018-01-24T06:37:32.255Z,87.17
2018-01-24T06:40:00.682Z,86.85
2018-01-24T06:42:29.233Z,86.65
2018-01-24T06:44:57.638Z,87.04
2018-01-24T06:47:26.025Z,86.61
2018-01-24T06:49:55.282Z,87.05
2018-01-24T06:52:23.736Z,86.91
2018-01-24T06:54:52.172Z,86.60
2018-01-24T06:57:20.649Z,86.93
2018-01-24T06:59:49.059Z,86.75
2018-01-24T07:02:17.459Z,86.46
2018-01-24T07:04:45.906Z,86.22
2018-01-24T07:07:14.323Z,86.80
2018-01-24T07:09:42.727Z,86.75
2018-01-24T07:12:22.777Z,86.52
2018-01-24T07:14:51.436Z,86.65
2018-01-24T07:17:19.924Z,86.42
2018-01-24T07:19:48.410Z,86.47
2018-01-24T07:22:16.795Z,86.18
2018-01-24T07:24:45.204Z,86.52
2018-01-24T07:27:13.654Z,86.62
2018-01-24T07:29:42.071Z,86.94
2018-01-24T07:32:10.491Z,86.89
2018-01-24T07:34:38.965Z,87.25
2018-01-24T07:37:07.365Z,86.62
2018-01-24T07:39:35.758Z,87.23
2018-01-24T07:42:04.206Z,87.33
2018-01-24T07:44:32.606Z,87.46
2018-01-24T07:47:01.043Z,87.32
2018-01-24T07:49:29.488Z,87.46
2018-01-24T07:51:57.896Z,87.06
2018-01-24T07:54:26.297Z,87.44
2018-01-24T07:56:54.759Z,87.05
2018-01-24T07:59:23.197Z,87.56
2018-01-24T08:01:51.640Z,87.52
2018-01-24T08:04:20.118Z,86.85
2018-01-24T08:06:48.542Z,87.72
2018-01-24T08:09:16.966Z,87.89
2018-01-24T08:11:45.435Z,87.52
2018-01-24T08:14:13.831Z,86.67
2018-01-24T08:16:42.217Z,86.78
2018-01-24T08:19:10.683Z,86.84
2018-01-24T08:21:39.099Z,86.25
2018-01-24T08:24:07.501Z,86.22
2018-01-24T08:26:35.918Z,86.84
2018-01-24T08:29:04.306Z,86.70
2018-01-24T08:31:32.712Z,86.47
2018-01-24T08:34:01.226Z,85.91
2018-01-24T08:36:29.622Z,86.00
2018-01-24T08:38:58.338Z,85.94
2018-01-24T08:41:26.787Z,86.09
2018-01-24T08:43:55.232Z,86.10
2018-01-24T08:46:23.669Z,86.33
2018-01-24T08:48:52.112Z,86.15
2018-01-24T08:51:20.510Z,86.19
2018-01-24T08:53:48.949Z,86.13
2018-01-24T08:56:17.396Z,85.93
2018-01-24T08:58:45.800Z,86.36
2018-01-24T09:01:14.235Z,86.25
2018-01-24T09:03:42.700Z,85.94
2018-01-24T09:06:11.161Z,85.63
2018-01-24T09:08:39.562Z,85.62
2018-01-24T09:11:08.017Z,85.27
2018-01-24T09:13:36.415Z,85.76
2018-01-24T09:16:04.840Z,85.44
2018-01-24T09:18:33.296Z,84.93
2018-01-24T09:21:01.719Z,85.15
2018-01-24T09:23:30.126Z,84.54
2018-01-24T09:25:58.577Z,84.70
2018-01-24T09:28:26.978Z,85.07
2018-01-24T09:30:55.370Z,84.44
2018-01-24T09:33:23.842Z,83.99
2018-01-24T09:35:52.253Z,84.06
2018-01-24T09:38:20.689Z,84.13
2018-01-24T09:40:49.149Z,83.87
2018-01-24T09:43:17.543Z,83.42
2018-01-24T09:45:45.936Z,83.38
2018-01-24T09:48:14.358Z,82.95
2018-01-24T09:50:42.767Z,83.58
2018-01-24T09:53:11.198Z,82.60
2018-01-24T09:55:39.645Z,83.10
2018-01-24T09:58:08.081Z,83.18
2018-01-24T10:00:36.496Z,82.40
2018-01-24T10:03:04.957Z,81.58
2018-01-24T10:05:33.378Z,82.01
2018-01-24T10:08:01.798Z,82.13
2018-01-24T10:10:30.275Z,82.23
2018-01-24T10:12:58.662Z,81.90
2018-01-24T10:15:27.074Z,81.79
2018-01-24T10:17:55.501Z,82.23
2018-01-24T10:20:23.908Z,82.05
2018-01-24T10:22:52.339Z,82.02
2018-01-24T10:25:20.786Z,82.01
2018-01-24T10:27:49.182Z,82.35
2018-01-24T10:30:17.582Z,82.51
2018-01-24T10:32:46.034Z,82.39
2018-01-24T10:35:14.465Z,82.78
2018-01-24T10:37:42.900Z,82.37
2018-01-24T10:40:11.362Z,82.32
2018-01-24T10:42:39.811Z,82.37
2018-01-24T10:45:08.220Z,81.95
2018-01-24T10:47:36.847Z,82.45
2018-01-24T10:50:05.253Z,82.40
2018-01-24T10:52:33.671Z,82.39
2018-01-24T10:55:02.343Z,83.11
2018-01-24T10:57:30.766Z,82.61
2018-01-24T10:59:59.178Z,82.81
2018-01-24T11:02:27.650Z,82.92
2018-01-24T11:04:56.055Z,83.09
2018-01-24T11:07:24.518Z,82.95
2018-01-24T11:09:52.978Z,83.14
2018-01-24T11:12:21.393Z,83.33
2018-01-24T11:14:49.792Z,83.77
2018-01-24T11:17:18.285Z,82.95
2018-01-24T11:19:46.722Z,82.86
2018-01-24T11:22:15.118Z,83.06
2018-01-24T11:24:43.554Z,82.70
2018-01-24T11:27:11.979Z,82.68
2018-01-24T11:29:40.376Z,82.90
2018-01-24T11:32:08.843Z,82.56
2018-01-24T11:34:37.238Z,82.70
2018-01-24T11:37:05.628Z,82.58
2018-01-24T11:39:34.057Z,82.11
2018-01-24T11:42:02.461Z,82.11
2018-01-24T11:44:30.888Z,82.22
2018-01-24T11:46:59.358Z,82.09
2018-01-24T11:49:27.754Z,81.82
2018-01-24T11:51:56.178Z,81.95
2018-01-24T11:54:24.615Z,81.93
2018-01-24T11:56:53.050Z,81.84
2018-01-24T11:59:21.463Z,81.65
2018-01-24T12:01:49.931Z,81.90
2018-01-24T12:04:18.326Z,81.79
2018-01-24T12:06:46.720Z,81.37
2018-01-24T12:09:15.178Z,80.76
2018-01-24T12:11:43.575Z,81.09
2018-01-24T12:14:12.018Z,80.91
2018-01-24T12:16:40.850Z,80.96
2018-01-24T12:19:09.242Z,81.04
2018-01-24T12:21:37.657Z,80.73
2018-01-24T12:24:06.116Z,80.32
2018-01-24T12:26:34.526Z,79.80
2018-01-24T12:29:02.942Z,80.25
2018-01-24T12:31:31.481Z,80.31
2018-01-24T12:33:59.918Z,79.63
2018-01-24T12:36:28.347Z,79.80
2018-01-24T12:38:56.784Z,79.62
2018-01-24T12:41:25.193Z,79.21
2018-01-24T12:43:53.628Z,79.75
2018-01-24T12:46:22.081Z,79.67
2018-01-24T12:48:50.508Z,79.86
2018-01-24T12:51:18.913Z,80.25
2018-01-24T12:53:47.362Z,80.36
2018-01-24T12:56:15.762Z,80.37
2018-01-24T12:58:44.181Z,80.37
2018-01-24T13:01:12.629Z,79.96
2018-01-24T13:03:41.056Z,79.91
2018-01-24T13:06:09.470Z,79.73
2018-01-24T13:08:37.897Z,79.86
2018-01-24T13:11:06.318Z,79.92
2018-01-24T13:13:34.744Z,79.59
2018-01-24T13:16:03.206Z,79.71
2018-01-24T13:18:31.616Z,79.54
2018-01-24T13:21:00.012Z,79.23
2018-01-24T13:23:28.501Z,78.50
2018-01-24T13:25:56.931Z,78.82
2018-01-24T13:28:25.347Z,78.51
2018-01-24T13:30:53.812Z,78.80
2018-01-24T13:33:22.224Z,78.48
2018-01-24T13:35:50.682Z,78.04
2018-01-24T13:38:19.117Z,78.00
2018-01-24T13:40:47.504Z,77.86
2018-01-24T13:43:15.932Z,77.48
2018-01-24T13:45:44.380Z,77.10
2018-01-24T13:48:12.785Z,77.28
2018-01-24T13:50:41.168Z,78.09
2018-01-24T13:53:09.612Z,78.03
2018-01-24T13:55:38.005Z,78.02
2018-01-24T13:58:06.417Z,77.80
2018-01-24T14:00:34.869Z,78.31
2018-01-24T14:03:03.295Z,78.43
2018-01-24T14:05:31.737Z,78.44
2018-01-24T14:08:00.203Z,78.73
2018-01-24T14:10:28.617Z,78.83
2018-01-24T14:12:57.057Z,78.93
2018-01-24T14:15:25.526Z,78.76
2018-01-24T14:17:53.922Z,79.00
2018-01-24T14:20:22.354Z,79.29
2018-01-24T14:22:50.779Z,79.54
2018-01-24T14:25:19.178Z,79.32
2018-01-24T14:27:47.612Z,79.50
2018-01-24T14:30:16.083Z,79.66
2018-01-24T14:32:44.470Z,79.38
2018-01-24T14:35:12.908Z,79.56
2018-01-24T14:37:41.370Z,79.45
2018-01-24T14:40:09.773Z,79.39
2018-01-24T14:42:38.187Z,79.37
2018-01-24T14:45:06.671Z,79.41
2018-01-24T14:47:35.097Z,79.17
2018-01-24T14:50:03.542Z,79.08
2018-01-24T14:52:32.008Z,79.14
2018-01-24T14:55:00.422Z,79.07
2018-01-24T14:57:28.813Z,79.17
2018-01-24T14:59:57.273Z,79.36
2018-01-24T15:02:25.668Z,79.36
2018-01-24T15:04:54.067Z,79.25
2018-01-24T15:07:22.666Z,79.08
2018-01-24T15:09:51.081Z,79.28
2018-01-24T15:12:19.477Z,79.55
2018-01-24T15:14:47.927Z,79.23
2018-01-24T15:17:16.356Z,78.84
2018-01-24T15:19:44.786Z,78.86
2018-01-24T15:22:13.219Z,78.84
2018-01-24T15:24:41.645Z,79.11
2018-01-24T15:27:10.077Z,79.14
2018-01-24T15:29:38.550Z,78.90
2018-01-24T15:32:06.954Z,79.23
2018-01-24T15:34:35.354Z,79.05
2018-01-24T15:37:03.832Z,78.92
2018-01-24T15:39:32.239Z,78.98
2018-01-24T15:42:00.648Z,79.30
2018-01-24T15:44:29.120Z,78.98
2018-01-24T15:46:57.540Z,78.86
2018-01-24T15:49:26.343Z,78.69
2018-01-24T15:51:54.782Z,78.93
2018-01-24T15:54:23.176Z,79.06
2018-01-24T15:56:51.594Z,79.26
2018-01-24T15:59:20.182Z,79.42
2018-01-24T16:01:48.599Z,79.64
2018-01-24T16:04:17.013Z,79.88
2018-01-24T16:06:45.485Z,79.61
2018-01-24T16:09:13.900Z,79.59
2018-01-24T16:11:42.300Z,79.70
2018-01-24T16:14:10.765Z,79.16
2018-01-24T16:16:39.194Z,79.04
2018-01-24T16:19:07.588Z,79.42
2018-01-24T16:21:36.018Z,79.48
2018-01-24T16:24:04.421Z,79.38
2018-01-24T16:26:32.818Z,79.15
2018-01-24T16:29:01.273Z,79.18
2018-01-24T16:31:29.673Z,79.14
2018-01-24T16:33:58.080Z,78.72
2018-01-24T16:36:26.558Z,78.74
2018-01-24T16:38:54.950Z,78.95
2018-01-24T16:41:23.365Z,79.05
2018-01-24T16:43:51.808Z,78.81
2018-01-24T16:46:20.211Z,78.71
2018-01-24T16:48:48.619Z,78.05
2018-01-24T16:51:17.084Z,78.07
2018-01-24T16:53:45.493Z,78.66
2018-01-24T16:56:13.895Z,78.43
2018-01-24T16:58:42.523Z,78.31
2018-01-24T17:01:10.951Z,78.66
2018-01-24T17:03:39.359Z,78.69
2018-01-24T17:06:07.815Z,78.76
2018-01-24T17:08:37.095Z,78.98
2018-01-24T17:11:05.516Z,78.94
2018-01-24T17:13:33.950Z,79.14
2018-01-24T17:16:02.349Z,79.14
2018-01-24T17:18:33.092Z,78.41
2018-01-24T17:21:01.598Z,78.05
2018-01-24T17:23:30.025Z,78.14
2018-01-24T17:25:58.475Z,78.55
2018-01-24T17:28:27.917Z,78.02
2018-01-24T17:31:07.126Z,78.14
2018-01-24T17:33:35.572Z,78.61
2018-01-24T17:36:03.999Z,78.88
2018-01-24T17:38:32.395Z,78.02
2018-01-24T17:41:00.834Z,77.71
2018-01-24T17:43:29.229Z,77.91
2018-01-24T17:45:57.612Z,78.09
2018-01-24T17:48:26.056Z,78.10
2018-01-24T17:50:54.460Z,78.11
2018-01-24T17:53:22.868Z,77.90
2018-01-24T17:55:51.303Z,78.07
2018-01-24T17:58:19.719Z,78.30
2018-01-24T18:00:48.146Z,77.71
2018-01-24T18:03:16.610Z,78.44
2018-01-24T18:05:45.023Z,78.32
2018-01-24T18:08:13.426Z,77.72
2018-01-24T18:10:42.066Z,77.86
2018-01-24T18:13:10.481Z,78.07
2018-01-24T18:15:38.882Z,78.19
2018-01-24T18:18:07.361Z,78.25
2018-01-24T18:20:35.773Z,78.65
2018-01-24T18:23:04.174Z,78.52
2018-01-24T18:25:32.633Z,79.08
2018-01-24T18:28:01.047Z,78.65
2018-01-24T18:30:29.465Z,78.63
2018-01-24T18:32:58.341Z,79.14
2018-01-24T18:35:26.746Z,78.55
2018-01-24T18:37:55.185Z,78.74
2018-01-24T18:40:23.629Z,78.12
2018-01-24T18:42:52.309Z,78.32
2018-01-24T18:45:20.733Z,78.17
2018-01-24T18:47:49.177Z,78.31
2018-01-24T18:50:17.889Z,78.35
2018-01-24T18:52:46.330Z,77.61
2018-01-24T18:55:14.770Z,77.56
2018-01-24T18:57:43.190Z,77.98
2018-01-24T19:00:11.604Z,77.81
2018-01-24T19:02:40.381Z,77.28
2018-01-24T19:05:08.794Z,77.55
2018-01-24T19:07:37.204Z,77.29
2018-01-24T19:10:05.684Z,77.75
2018-01-24T19:12:34.086Z,77.32
2018-01-24T19:15:02.506Z,78.25
2018-01-24T19:17:30.975Z,78.06
2018-01-24T19:19:59.391Z,77.90
2018-01-24T19:22:27.835Z,77.97
2018-01-24T19:24:56.273Z,77.92
2018-01-24T19:27:24.657Z,77.91
2018-01-24T19:29:53.041Z,77.75
2018-01-24T19:32:21.502Z,77.98
2018-01-24T19:34:49.919Z,78.30
2018-01-24T19:37:18.310Z,78.50
2018-01-24T19:39:46.761Z,77.96
2018-01-24T19:42:15.160Z,78.26
2018-01-24T19:44:43.550Z,78.26
2018-01-24T19:47:12.004Z,77.99
2018-01-24T19:49:40.417Z,78.25
2018-01-24T19:52:08.848Z,78.21
2018-01-24T19:54:37.314Z,78.04
2018-01-24T19:57:05.745Z,78.09
2018-01-24T19:59:34.164Z,77.87
2018-01-24T20:02:02.628Z,77.71
2018-01-24T20:04:31.041Z,77.43
2018-01-24T20:06:59.480Z,76.84
2018-01-24T20:09:28.022Z,76.95
2018-01-24T20:11:56.403Z,77.16
2018-01-24T20:14:24.810Z,76.86
2018-01-24T20:16:53.269Z,76.20
2018-01-24T20:19:21.697Z,76.47
2018-01-24T20:21:50.099Z,76.95
2018-01-24T20:24:18.538Z,76.40
2018-01-24T20:26:46.975Z,76.63
2018-01-24T20:29:15.369Z,76.18
2018-01-24T20:31:44.010Z,76.53
2018-01-24T20:34:12.435Z,76.52
2018-01-24T20:36:40.866Z,76.01
2018-01-24T20:39:09.340Z,76.48
2018-01-24T20:41:37.736Z,76.17
2018-01-24T20:44:06.179Z,75.93
2018-01-24T20:46:34.636Z,75.80
2018-01-24T20:49:03.056Z,76.02
2018-01-24T20:51:31.473Z,75.78
2018-01-24T20:53:59.916Z,76.20
2018-01-24T20:56:28.302Z,75.21
2018-01-24T20:58:56.701Z,75.33
2018-01-24T21:01:25.164Z,75.62
2018-01-24T21:03:53.561Z,75.15
2018-01-24T21:06:21.945Z,75.48
2018-01-24T21:08:50.392Z,75.21
2018-01-24T21:11:18.813Z,75.54
2018-01-24T21:13:47.209Z,75.85
2018-01-24T21:16:15.684Z,75.96
2018-01-24T21:18:44.075Z,76.02
2018-01-24T21:21:12.460Z,76.58
2018-01-24T21:23:40.889Z,76.15
2018-01-24T21:26:09.322Z,76.36
2018-01-24T21:28:49.609Z,76.00
2018-01-24T21:31:29.942Z,76.15
2018-01-24T21:34:10.366Z,75.99
2018-01-24T21:36:59.726Z,76.32
2018-01-24T21:39:28.191Z,76.13
2018-01-24T21:41:56.593Z,75.72
2018-01-24T21:44:24.995Z,75.47
2018-01-24T21:46:53.456Z,75.58
2018-01-24T21:49:21.869Z,74.71
2018-01-24T21:51:50.292Z,74.95
2018-01-24T21:54:18.731Z,74.10
2018-01-24T21:56:47.145Z,74.34
2018-01-24T21:59:15.546Z,73.89
2018-01-24T22:01:43.980Z,73.81
2018-01-24T22:04:12.377Z,74.53
2018-01-24T22:06:40.806Z,73.80
2018-01-24T22:09:09.264Z,73.23
2018-01-24T22:11:37.696Z,73.67
2018-01-24T22:14:06.095Z,73.36
2018-01-24T22:16:34.545Z,73.33
2018-01-24T22:19:03.008Z,73.45
2018-01-24T22:21:31.813Z,72.78
2018-01-24T22:24:00.273Z,72.44
2018-01-24T22:26:29.174Z,72.43
2018-01-24T22:28:57.577Z,72.83
2018-01-24T22:31:26.069Z,73.34
2018-01-24T22:33:54.473Z,72.79
2018-01-24T22:36:22.909Z,72.69
2018-01-24T22:38:51.405Z,72.61
2018-01-24T22:41:19.823Z,72.55
2018-01-24T22:43:48.223Z,72.23
2018-01-24T22:46:16.697Z,72.57
2018-01-24T22:48:45.114Z,72.74
2018-01-24T22:51:13.546Z,72.55
2018-01-24T22:53:42.232Z,72.42
2018-01-24T22:56:10.640Z,72.12
2018-01-24T22:58:39.026Z,72.48
2018-01-24T23:01:07.522Z,72.55
2018-01-24T23:03:35.920Z,72.51
2018-01-24T23:06:04.340Z,72.74
2018-01-24T23:08:32.788Z,72.16
2018-01-24T23:11:01.182Z,72.16
2018-01-24T23:13:29.621Z,72.35
2018-01-24T23:15:58.037Z,72.48
2018-01-24T23:18:26.444Z,72.76
2018-01-24T23:20:54.851Z,72.81
2018-01-24T23:23:23.317Z,72.79
2018-01-24T23:25:51.750Z,72.45
2018-01-24T23:28:20.186Z,71.67
2018-01-24T23:30:48.622Z,72.16
2018-01-24T23:33:17.041Z,71.56
2018-01-24T23:35:45.429Z,72.39
2018-01-24T23:38:14.125Z,71.95
2018-01-24T23:40:42.533Z,72.39
2018-01-24T23:43:10.932Z,71.68
2018-01-24T23:45:39.382Z,71.81
2018-01-24T23:48:07.806Z,71.43
2018-01-24T23:50:36.217Z,72.42
2018-01-24T23:53:04.682Z,71.68
2018-01-24T23:55:33.104Z,72.44
2018-01-24T23:58:01.515Z,71.94
